createdAt,value
2018-04-26T00:03:49.259Z,1.70
2018-04-26T00:08:52.612Z,1.70
2018-04-26T00:13:55.633Z,1.70
2018-04-26T00:18:59.455Z,1.70
2018-04-26T00:24:02.018Z,1.70
2018-04-26T00:29:05.347Z,1.80
2018-04-26T00:34:07.921Z,1.57
2018-04-26T00:39:11.238Z,1.80
2018-04-26T00:44:14.579Z,1.57
2018-04-26T00:49:17.476Z,1.70
2018-04-26T00:54:20.541Z,1.77
2018-04-26T00:59:23.119Z,2.10
2018-04-26T01:04:26.449Z,2.03
2018-04-26T01:09:35.602Z,1.90
2018-04-26T01:14:38.166Z,2.20
2018-04-26T01:19:40.717Z,2.20
2018-04-26T01:24:43.300Z,2.00
2018-04-26T01:29:45.871Z,1.90
2018-04-26T01:34:48.429Z,2.00
2018-04-26T01:39:51.757Z,2.07
2018-04-26T01:44:54.340Z,2.07
2018-04-26T01:49:57.677Z,1.87
2018-04-26T01:55:00.255Z,1.90
2018-04-26T02:00:03.808Z,1.87
2018-04-26T02:05:07.313Z,1.80
2018-04-26T02:10:09.872Z,1.83
2018-04-26T02:15:12.441Z,1.80
2018-04-26T02:20:15.008Z,2.00
2018-04-26T02:25:17.590Z,2.10
2018-04-26T02:30:20.933Z,2.10
2018-04-26T02:35:24.100Z,2.20
2018-04-26T02:40:26.664Z,2.30
2018-04-26T02:45:29.246Z,2.57
2018-04-26T02:50:31.849Z,2.50
2018-04-26T02:55:35.440Z,2.37
2018-04-26T03:00:38.455Z,2.40
2018-04-26T03:05:41.309Z,2.13
2018-04-26T03:10:43.893Z,2.17
2018-04-26T03:15:46.716Z,2.30
2018-04-26T03:20:50.976Z,1.93
2018-04-26T03:25:54.723Z,2.00
2018-04-26T03:30:57.581Z,1.83
2018-04-26T03:36:00.510Z,1.37
2018-04-26T03:41:03.818Z,1.30
2018-04-26T03:46:06.387Z,1.17
2018-04-26T03:51:09.531Z,1.10
2018-04-26T03:56:12.869Z,1.10
2018-04-26T04:01:28.151Z,1.20
2018-04-26T04:06:30.765Z,1.20
2018-04-26T04:11:33.335Z,1.13
2018-04-26T04:16:37.279Z,1.20
2018-04-26T04:21:40.620Z,1.10
2018-04-26T04:26:43.665Z,1.17
2018-04-26T04:31:46.806Z,1.10
2018-04-26T04:36:50.528Z,1.23
2018-04-26T04:41:54.319Z,1.37
2018-04-26T04:46:57.819Z,1.20
2018-04-26T04:52:00.515Z,1.30
2018-04-26T04:57:03.077Z,1.30
2018-04-26T05:02:06.501Z,1.40
2018-04-26T05:07:08.991Z,1.20
2018-04-26T05:12:13.029Z,1.60
2018-04-26T05:17:17.015Z,1.60
2018-04-26T05:22:20.373Z,1.80
2018-04-26T05:27:23.705Z,1.80
2018-04-26T05:32:26.961Z,1.80
2018-04-26T05:37:29.536Z,1.50
2018-04-26T05:42:32.110Z,1.60
2018-04-26T05:47:34.676Z,1.80
2018-04-26T05:52:39.816Z,1.73
2018-04-26T05:57:42.379Z,1.70
2018-04-26T06:02:46.736Z,1.60
2018-04-26T06:07:49.304Z,1.70
2018-04-26T06:12:52.739Z,1.50
2018-04-26T06:17:58.134Z,1.57
2018-04-26T06:23:01.345Z,1.73
2018-04-26T06:28:03.933Z,2.00
2018-04-26T06:33:06.492Z,1.60
2018-04-26T06:38:09.213Z,2.10
2018-04-26T06:43:12.216Z,1.70
2018-04-26T06:48:14.796Z,1.90
2018-04-26T06:53:17.812Z,2.27
2018-04-26T06:58:21.093Z,2.20
2018-04-26T07:03:23.857Z,2.60
2018-04-26T07:08:26.878Z,3.07
2018-04-26T07:13:29.464Z,3.10
2018-04-26T07:18:32.103Z,2.87
2018-04-26T07:23:34.636Z,2.83
2018-04-26T07:28:38.336Z,2.40
2018-04-26T07:33:41.659Z,2.47
2018-04-26T07:38:45.594Z,2.70
2018-04-26T07:43:48.935Z,3.70
2018-04-26T07:48:52.098Z,2.50
2018-04-26T07:53:55.537Z,2.33
2018-04-26T07:58:59.063Z,2.00
2018-04-26T08:04:01.651Z,2.20
2018-04-26T08:09:05.888Z,2.20
2018-04-26T08:14:09.234Z,2.23
2018-04-26T08:19:11.823Z,2.20
2018-04-26T08:24:15.311Z,2.13
2018-04-26T08:29:18.697Z,2.60
2018-04-26T08:34:21.278Z,2.60
2018-04-26T08:39:24.618Z,3.10
2018-04-26T08:44:27.386Z,2.40
2018-04-26T08:49:29.953Z,2.60
2018-04-26T08:54:33.284Z,2.63
2018-04-26T08:59:36.620Z,2.30
2018-04-26T09:04:39.777Z,2.80
2018-04-26T09:09:42.831Z,2.30
2018-04-26T09:14:47.016Z,2.27
2018-04-26T09:19:49.585Z,2.57
2018-04-26T09:24:52.153Z,2.63
2018-04-26T09:29:54.744Z,2.77
2018-04-26T09:34:57.796Z,2.70
2018-04-26T09:40:00.359Z,2.60
2018-04-26T09:45:02.940Z,2.63
2018-04-26T09:50:05.517Z,3.43
2018-04-26T09:55:08.138Z,3.03
2018-04-26T10:00:10.830Z,2.77
2018-04-26T10:05:14.163Z,2.10
2018-04-26T10:10:16.734Z,2.70
2018-04-26T10:15:20.056Z,2.60
2018-04-26T10:20:24.235Z,2.63
2018-04-26T10:25:27.376Z,3.00
2018-04-26T10:30:30.006Z,2.53
2018-04-26T10:35:33.347Z,2.60
2018-04-26T10:40:35.928Z,2.90
2018-04-26T10:45:47.772Z,2.70
2018-04-26T10:50:50.328Z,2.60
2018-04-26T10:55:53.665Z,3.43
2018-04-26T11:00:57.393Z,2.27
2018-04-26T11:06:00.849Z,2.73
2018-04-26T11:11:03.438Z,2.77
2018-04-26T11:16:06.482Z,3.00
2018-04-26T11:21:09.112Z,2.73
2018-04-26T11:26:11.997Z,2.50
2018-04-26T11:31:15.336Z,2.60
2018-04-26T11:36:18.196Z,2.63
2018-04-26T11:41:20.761Z,3.07
2018-04-26T11:46:23.335Z,2.60
2018-04-26T11:51:26.375Z,2.70
2018-04-26T11:56:28.977Z,2.77
2018-04-26T12:01:34.211Z,3.13
2018-04-26T12:06:36.807Z,3.20
2018-04-26T12:11:39.381Z,2.90
2018-04-26T12:16:43.159Z,3.07
2018-04-26T12:21:46.659Z,2.80
2018-04-26T12:26:49.836Z,3.20
2018-04-26T12:31:53.148Z,3.00
2018-04-26T12:36:56.514Z,3.07
2018-04-26T12:42:05.757Z,2.90
2018-04-26T12:47:09.456Z,2.97
2018-04-26T12:52:12.780Z,2.80
2018-04-26T12:57:15.352Z,2.50
2018-04-26T13:02:21.303Z,2.90
2018-04-26T13:07:23.867Z,2.40
2018-04-26T13:12:26.443Z,2.57
2018-04-26T13:17:29.023Z,2.70
2018-04-26T13:22:32.704Z,2.70
2018-04-26T13:27:35.624Z,2.50
2018-04-26T13:32:38.210Z,2.80
2018-04-26T13:37:41.778Z,2.47
2018-04-26T13:42:45.369Z,2.90
2018-04-26T13:47:49.109Z,2.87
2018-04-26T13:52:52.447Z,2.77
2018-04-26T13:57:55.028Z,2.63
2018-04-26T14:02:57.872Z,3.10
2018-04-26T14:08:00.901Z,2.50
2018-04-26T14:13:03.477Z,2.53
2018-04-26T14:18:06.045Z,2.83
2018-04-26T14:23:16.036Z,3.03
2018-04-26T14:28:18.593Z,2.30
2018-04-26T14:33:21.467Z,2.70
2018-04-26T14:38:24.056Z,2.27
2018-04-26T14:43:26.706Z,3.00
2018-04-26T14:48:29.258Z,2.03
2018-04-26T14:53:32.299Z,2.43
2018-04-26T14:58:34.898Z,2.37
2018-04-26T15:03:37.477Z,2.70
2018-04-26T15:08:40.035Z,2.87
2018-04-26T15:13:43.020Z,3.00
2018-04-26T15:18:46.375Z,2.93
2018-04-26T15:23:49.394Z,2.57
2018-04-26T15:28:51.998Z,2.80
2018-04-26T15:33:55.309Z,2.40
2018-04-26T15:38:57.877Z,2.60
2018-04-26T15:44:00.463Z,2.60
2018-04-26T15:49:04.392Z,2.60
2018-04-26T15:54:19.583Z,2.57
2018-04-26T16:05:20.388Z,2.23
2018-04-26T16:10:41.122Z,2.60
2018-04-26T16:21:48.016Z,2.40
2018-04-26T16:27:08.372Z,2.17
2018-04-26T16:32:29.432Z,2.53
2018-04-26T16:43:18.222Z,2.87
2018-04-26T16:48:21.723Z,2.33
2018-04-26T16:53:24.287Z,2.40
2018-04-26T16:58:27.457Z,2.70
2018-04-26T17:03:30.846Z,2.47
2018-04-26T17:08:33.408Z,2.70
2018-04-26T17:13:36.568Z,2.90
2018-04-26T17:18:40.187Z,2.43
2018-04-26T17:23:43.951Z,2.60
2018-04-26T17:28:48.257Z,2.90
2018-04-26T17:33:51.589Z,2.87
2018-04-26T17:38:54.169Z,2.90
2018-04-26T17:43:58.023Z,3.17
2018-04-26T17:49:00.646Z,4.00
2018-04-26T17:54:03.893Z,3.10
2018-04-26T17:59:06.492Z,2.50
2018-04-26T18:04:09.517Z,3.10
2018-04-26T18:09:12.853Z,3.33
2018-04-26T18:14:15.899Z,3.00
2018-04-26T18:19:18.546Z,3.03
2018-04-26T18:24:21.887Z,3.30
2018-04-26T18:29:24.467Z,2.83
2018-04-26T18:34:27.993Z,2.83
2018-04-26T18:39:30.580Z,3.03
2018-04-26T18:44:33.913Z,3.17
2018-04-26T18:49:36.917Z,3.07
2018-04-26T18:54:39.620Z,4.00
2018-04-26T18:59:42.195Z,8.20
2018-04-26T19:04:45.828Z,3.47
2018-04-26T19:09:50.286Z,3.80
2018-04-26T19:14:52.895Z,3.10
2018-04-26T19:19:55.472Z,3.00
2018-04-26T19:24:58.719Z,2.80
2018-04-26T19:30:01.417Z,2.90
2018-04-26T19:35:05.104Z,2.63
2018-04-26T19:40:08.433Z,3.20
2018-04-26T19:45:11.005Z,2.80
2018-04-26T19:50:21.426Z,3.63
2018-04-26T19:55:24.014Z,4.00
2018-04-26T20:00:27.061Z,3.10
2018-04-26T20:05:29.637Z,2.80
2018-04-26T20:10:32.221Z,4.10
2018-04-26T20:15:34.842Z,3.70
2018-04-26T20:20:37.384Z,2.80
2018-04-26T20:25:41.002Z,3.10
2018-04-26T20:30:44.322Z,3.23
2018-04-26T20:35:48.256Z,2.90
2018-04-26T20:40:52.251Z,3.00
2018-04-26T20:45:54.809Z,2.93
2018-04-26T20:50:57.373Z,2.90
2018-04-26T20:56:00.154Z,2.73
2018-04-26T21:01:02.728Z,3.17
2018-04-26T21:06:05.300Z,3.10
2018-04-26T21:11:08.189Z,2.63
2018-04-26T21:16:11.529Z,2.60
2018-04-26T21:21:14.077Z,2.53
2018-04-26T21:26:16.696Z,2.60
2018-04-26T21:31:20.336Z,2.90
2018-04-26T21:36:23.537Z,3.00
2018-04-26T21:41:26.861Z,2.70
2018-04-26T21:46:29.912Z,2.47
2018-04-26T21:51:38.425Z,2.13
2018-04-26T21:56:46.598Z,2.00
2018-04-26T22:01:55.477Z,1.97
2018-04-26T22:06:59.232Z,1.80
2018-04-26T22:12:01.784Z,1.70
2018-04-26T22:17:12.185Z,1.90
2018-04-26T22:22:15.578Z,2.27
2018-04-26T22:27:18.159Z,1.70
2018-04-26T22:32:23.658Z,2.00
2018-04-26T22:37:27.021Z,2.03
2018-04-26T22:42:30.033Z,2.20
2018-04-26T22:47:33.198Z,2.03
2018-04-26T22:52:37.063Z,2.10
2018-04-26T22:57:39.648Z,2.10
2018-04-26T23:02:42.844Z,1.87
2018-04-26T23:07:45.401Z,2.00
2018-04-26T23:12:48.364Z,2.00
2018-04-26T23:17:50.915Z,2.00
2018-04-26T23:22:54.481Z,1.80
2018-04-26T23:27:57.688Z,2.20
2018-04-26T23:33:00.231Z,1.80
2018-04-26T23:38:03.370Z,2.53
2018-04-26T23:43:10.019Z,1.90
2018-04-26T23:48:12.569Z,1.50
2018-04-26T23:53:16.575Z,1.83
2018-04-26T23:58:19.140Z,1.70
